createdAt,value
2022-10-23T00:00:07.303Z,12.25
2022-10-23T00:02:35.563Z,12.75
2022-10-23T00:05:03.636Z,9.00
2022-10-23T00:07:33.269Z,9.50
2022-10-23T00:10:01.302Z,12.00
2022-10-23T00:12:29.454Z,15.50
2022-10-23T00:14:57.717Z,4.50
2022-10-23T00:17:26.192Z,9.50
2022-10-23T00:19:54.401Z,12.00
2022-10-23T00:22:22.472Z,13.50
2022-10-23T00:24:52.184Z,10.00
2022-10-23T00:27:20.607Z,11.50
2022-10-23T00:29:49.535Z,14.00
2022-10-23T00:32:17.904Z,11.00
2022-10-23T00:34:45.988Z,13.50
2022-10-23T00:37:14.041Z,9.00
2022-10-23T00:39:44.203Z,12.75
2022-10-23T00:42:15.333Z,9.00
2022-10-23T00:45:03.378Z,13.00
2022-10-23T00:47:32.458Z,9.00
2022-10-23T00:50:01.827Z,4.25
2022-10-23T00:52:32.260Z,9.00
2022-10-23T00:55:00.361Z,11.00
2022-10-23T00:57:33.501Z,12.25
2022-10-23T01:00:01.760Z,12.00
2022-10-23T01:02:30.032Z,8.50
2022-10-23T01:04:58.216Z,11.75
2022-10-23T01:07:30.458Z,12.00
2022-10-23T01:10:02.491Z,9.00
2022-10-23T01:12:36.336Z,11.50
2022-10-23T01:15:08.439Z,15.25
2022-10-23T01:17:41.016Z,11.50
2022-10-23T01:20:16.052Z,6.00
2022-10-23T01:22:55.276Z,11.50
2022-10-23T01:25:28.461Z,12.25
2022-10-23T01:28:02.930Z,10.25
2022-10-23T01:30:32.017Z,11.25
2022-10-23T01:33:03.711Z,7.00
2022-10-23T01:35:41.993Z,10.25
2022-10-23T01:38:14.175Z,13.00
2022-10-23T01:40:45.730Z,8.50
2022-10-23T01:43:19.506Z,11.50
2022-10-23T01:45:51.058Z,14.50
2022-10-23T01:48:24.852Z,11.50
2022-10-23T01:50:54.610Z,12.50
2022-10-23T01:53:23.287Z,11.25
2022-10-23T01:55:52.407Z,14.75
2022-10-23T01:58:26.710Z,8.50
2022-10-23T02:00:58.897Z,14.75
2022-10-23T02:03:28.489Z,14.00
2022-10-23T02:05:56.559Z,11.50
2022-10-23T02:08:25.599Z,11.00
2022-10-23T02:10:56.139Z,10.50
2022-10-23T02:13:28.263Z,12.50
2022-10-23T02:16:00.000Z,10.00
2022-10-23T02:18:32.359Z,11.00
2022-10-23T02:21:02.222Z,12.00
2022-10-23T02:23:32.631Z,11.50
2022-10-23T02:26:05.662Z,13.00
2022-10-23T02:28:40.266Z,5.00
2022-10-23T02:31:11.735Z,10.50
2022-10-23T02:33:40.121Z,11.50
2022-10-23T02:36:08.942Z,14.00
2022-10-23T02:38:40.523Z,12.50
2022-10-23T02:41:14.526Z,16.25
2022-10-23T02:43:47.777Z,13.00
2022-10-23T02:46:21.021Z,14.25
2022-10-23T02:48:52.577Z,14.75
2022-10-23T02:51:23.629Z,15.50
2022-10-23T02:56:38.836Z,8.00
2022-10-23T02:59:12.176Z,8.80
2022-10-23T03:01:45.683Z,10.00
2022-10-23T03:04:15.849Z,14.75
2022-10-23T03:06:44.227Z,13.00
2022-10-23T03:09:18.658Z,16.00
2022-10-23T03:11:46.778Z,2.00
2022-10-23T03:14:16.297Z,10.25
2022-10-23T03:16:45.983Z,17.00
2022-10-23T03:19:14.163Z,16.50
2022-10-23T03:21:42.239Z,15.60
2022-10-23T03:24:11.198Z,13.60
2022-10-23T03:26:44.642Z,4.80
2022-10-23T03:29:12.915Z,8.40
2022-10-23T03:31:48.052Z,16.20
2022-10-23T03:34:17.049Z,13.00
2022-10-23T03:36:45.109Z,13.40
2022-10-23T03:39:13.375Z,12.20
2022-10-23T03:41:43.393Z,16.60
2022-10-23T03:44:11.496Z,10.00
2022-10-23T03:46:45.669Z,15.60
2022-10-23T03:49:15.205Z,15.80
2022-10-23T03:51:51.991Z,9.00
2022-10-23T03:54:23.444Z,13.80
2022-10-23T03:56:53.725Z,17.40
2022-10-23T03:59:24.818Z,16.80
2022-10-23T04:01:53.105Z,16.20
2022-10-23T04:04:22.805Z,14.40
2022-10-23T04:06:50.825Z,16.40
2022-10-23T04:09:20.384Z,19.00
2022-10-23T04:11:48.815Z,16.00
2022-10-23T04:14:18.005Z,17.00
2022-10-23T04:16:46.219Z,13.00
2022-10-23T04:19:14.373Z,10.00
2022-10-23T04:21:43.975Z,17.00
2022-10-23T04:24:13.351Z,16.00
2022-10-23T04:26:41.551Z,19.00
2022-10-23T04:29:11.678Z,14.60
2022-10-23T04:31:39.688Z,20.40
2022-10-23T04:34:07.772Z,18.00
2022-10-23T04:36:37.119Z,16.75
2022-10-23T04:39:13.005Z,7.00
2022-10-23T04:41:41.099Z,12.00
2022-10-23T04:44:09.317Z,14.60
2022-10-23T04:46:39.953Z,15.00
2022-10-23T04:49:08.089Z,17.50
2022-10-23T04:51:54.485Z,16.80
2022-10-23T04:54:56.335Z,18.00
2022-10-23T04:57:31.452Z,15.50
2022-10-23T05:00:02.775Z,15.40
2022-10-23T05:02:38.444Z,13.25
2022-10-23T05:05:07.484Z,13.50
2022-10-23T05:07:55.900Z,16.00
2022-10-23T05:10:45.704Z,14.00
2022-10-23T05:13:15.688Z,19.00
2022-10-23T05:18:22.644Z,13.50
2022-10-23T05:20:51.829Z,13.00
2022-10-23T05:23:21.796Z,15.50
2022-10-23T05:25:57.446Z,15.75
2022-10-23T05:28:25.665Z,8.50
2022-10-23T05:30:53.871Z,12.25
2022-10-23T05:33:26.859Z,17.50
2022-10-23T05:35:55.512Z,11.00
2022-10-23T05:38:25.064Z,7.50
2022-10-23T05:40:53.522Z,12.75
2022-10-23T05:43:27.027Z,15.50
2022-10-23T05:46:01.249Z,14.00
2022-10-23T05:48:47.577Z,14.50
2022-10-23T05:51:40.522Z,12.50
2022-10-23T05:54:34.751Z,11.25
2022-10-23T05:57:21.202Z,11.75
2022-10-23T05:59:53.665Z,15.00
2022-10-23T06:02:41.582Z,11.50
2022-10-23T06:05:30.824Z,11.75
2022-10-23T06:08:16.195Z,11.75
2022-10-23T06:10:44.686Z,14.50
2022-10-23T06:13:13.571Z,14.00
2022-10-23T06:15:43.650Z,13.00
2022-10-23T06:18:23.612Z,12.75
2022-10-23T06:21:01.345Z,4.00
2022-10-23T06:23:31.792Z,9.00
2022-10-23T06:26:02.614Z,12.25
2022-10-23T06:28:42.095Z,7.00
2022-10-23T06:31:12.777Z,8.25
2022-10-23T06:33:41.097Z,12.00
2022-10-23T06:36:11.352Z,13.00
2022-10-23T06:38:42.542Z,9.25
2022-10-23T06:41:14.363Z,6.00
2022-10-23T06:43:42.930Z,11.50
2022-10-23T06:46:47.423Z,11.00
2022-10-23T06:49:34.173Z,11.00
2022-10-23T06:52:04.190Z,10.50
2022-10-23T06:54:32.531Z,8.25
2022-10-23T06:57:13.368Z,11.50
2022-10-23T06:59:47.304Z,12.50
2022-10-23T07:02:18.963Z,12.00
2022-10-23T07:04:47.913Z,11.00
2022-10-23T07:07:20.042Z,7.75
2022-10-23T07:09:51.634Z,11.00
2022-10-23T07:12:28.401Z,4.75
2022-10-23T07:15:16.725Z,6.00
2022-10-23T07:17:46.843Z,13.50
2022-10-23T07:20:15.374Z,12.50
2022-10-23T07:22:49.440Z,11.75
2022-10-23T07:25:22.765Z,14.00
2022-10-23T07:27:51.830Z,12.00
2022-10-23T07:30:20.104Z,14.50
2022-10-23T07:32:55.489Z,11.50
2022-10-23T07:35:42.359Z,11.25
2022-10-23T07:38:20.196Z,10.25
2022-10-23T07:40:58.373Z,11.50
2022-10-23T07:43:26.899Z,12.00
2022-10-23T07:45:55.633Z,15.25
2022-10-23T07:48:35.240Z,13.00
2022-10-23T07:51:08.560Z,15.00
2022-10-23T07:53:41.367Z,14.25
2022-10-23T07:56:30.049Z,12.00
2022-10-23T07:59:17.167Z,12.00
2022-10-23T08:01:55.715Z,14.00
2022-10-23T08:04:30.730Z,12.25
2022-10-23T08:07:09.196Z,13.00
2022-10-23T08:09:43.888Z,12.00
2022-10-23T08:12:12.720Z,12.25
2022-10-23T08:14:41.471Z,15.00
2022-10-23T08:17:10.320Z,13.00
2022-10-23T08:20:00.288Z,19.25
2022-10-23T08:22:37.070Z,11.75
2022-10-23T08:25:06.039Z,10.00
2022-10-23T08:27:34.344Z,14.00
2022-10-23T08:30:02.772Z,13.00
2022-10-23T08:32:31.619Z,19.75
2022-10-23T08:35:06.322Z,15.25
2022-10-23T08:37:37.891Z,17.00
2022-10-23T08:40:07.070Z,16.00
2022-10-23T08:43:05.093Z,10.00
2022-10-23T08:45:36.816Z,22.75
2022-10-23T08:48:15.280Z,19.00
2022-10-23T08:51:09.185Z,16.25
2022-10-23T08:53:42.583Z,16.50
2022-10-23T08:56:13.883Z,10.75
2022-10-23T08:58:46.725Z,16.25
2022-10-23T09:01:29.658Z,8.00
2022-10-23T09:03:58.492Z,11.00
2022-10-23T09:06:33.372Z,20.00
2022-10-23T09:09:09.966Z,14.75
2022-10-23T09:11:43.193Z,17.50
2022-10-23T09:14:29.994Z,15.25
2022-10-23T09:17:06.360Z,13.00
2022-10-23T09:19:34.836Z,16.00
2022-10-23T09:22:04.732Z,18.75
2022-10-23T09:24:33.820Z,16.00
2022-10-23T09:27:02.306Z,15.50
2022-10-23T09:29:33.110Z,19.00
2022-10-23T09:32:02.310Z,15.00
2022-10-23T09:34:31.286Z,15.00
2022-10-23T09:37:00.903Z,18.25
2022-10-23T09:39:32.076Z,17.50
2022-10-23T09:42:02.557Z,19.00
2022-10-23T09:44:32.062Z,17.50
2022-10-23T09:47:01.465Z,18.50
2022-10-23T09:49:30.819Z,16.00
2022-10-23T09:52:03.264Z,21.25
2022-10-23T09:54:34.745Z,16.00
2022-10-23T09:57:07.084Z,18.50
2022-10-23T09:59:35.455Z,17.00
2022-10-23T10:02:05.319Z,21.50
2022-10-23T10:04:37.685Z,17.25
2022-10-23T10:07:07.287Z,15.00
2022-10-23T10:09:37.172Z,19.75
2022-10-23T10:12:18.192Z,17.50
2022-10-23T10:15:04.065Z,17.75
2022-10-23T10:17:36.964Z,20.00
2022-10-23T10:20:20.131Z,17.25
2022-10-23T10:22:54.307Z,11.25
2022-10-23T10:25:29.811Z,14.00
2022-10-23T10:28:03.925Z,19.25
2022-10-23T10:30:37.293Z,10.25
2022-10-23T10:33:09.794Z,20.50
2022-10-23T10:35:42.921Z,18.25
2022-10-23T10:38:19.830Z,15.00
2022-10-23T10:40:54.825Z,15.00
2022-10-23T10:43:33.069Z,17.50
2022-10-23T10:46:06.392Z,32.00
2022-10-23T10:48:43.549Z,18.00
2022-10-23T10:51:41.847Z,18.00
2022-10-23T10:54:17.519Z,20.50
2022-10-23T10:56:48.679Z,26.00
2022-10-23T10:59:20.497Z,23.00
2022-10-23T11:01:53.919Z,19.75
2022-10-23T11:04:27.136Z,6.75
2022-10-23T11:06:55.925Z,18.25
2022-10-23T11:09:34.157Z,15.00
2022-10-23T11:12:04.202Z,14.00
2022-10-23T11:14:34.528Z,18.00
2022-10-23T11:17:04.990Z,18.50
2022-10-23T11:19:37.490Z,17.25
2022-10-23T11:22:10.426Z,19.25
2022-10-23T11:25:02.820Z,19.50
2022-10-23T11:28:01.710Z,19.25
2022-10-23T11:30:37.254Z,12.75
2022-10-23T11:33:18.456Z,19.00
2022-10-23T11:36:02.534Z,20.50
2022-10-23T11:38:32.745Z,20.25
2022-10-23T11:41:03.015Z,20.25
2022-10-23T11:43:34.716Z,20.00
2022-10-23T11:46:13.538Z,18.00
2022-10-23T11:48:42.942Z,18.00
2022-10-23T11:51:29.255Z,17.25
2022-10-23T11:54:07.996Z,21.00
2022-10-23T11:56:36.416Z,20.50
2022-10-23T11:59:19.580Z,17.00
2022-10-23T12:01:51.633Z,18.00
2022-10-23T12:04:23.808Z,19.25
2022-10-23T12:06:54.060Z,18.00
2022-10-23T12:09:26.959Z,28.50
2022-10-23T12:12:15.421Z,14.00
2022-10-23T12:14:46.280Z,22.25
2022-10-23T12:17:36.039Z,20.00
2022-10-23T12:20:24.773Z,19.75
2022-10-23T12:22:58.272Z,29.00
2022-10-23T12:25:35.455Z,20.50
2022-10-23T12:28:07.740Z,18.25
2022-10-23T12:30:40.895Z,21.25
2022-10-23T12:33:15.867Z,18.00
2022-10-23T12:35:55.739Z,21.75
2022-10-23T12:38:26.811Z,19.00
2022-10-23T12:40:56.536Z,18.00
2022-10-23T12:43:27.435Z,17.50
2022-10-23T12:45:56.453Z,18.00
2022-10-23T12:48:26.333Z,17.50
2022-10-23T12:50:55.991Z,17.75
2022-10-23T12:53:24.789Z,23.25
2022-10-23T12:55:55.371Z,19.00
2022-10-23T12:58:24.215Z,20.50
2022-10-23T13:00:57.580Z,20.25
2022-10-23T13:03:33.981Z,14.00
2022-10-23T13:06:03.915Z,12.25
2022-10-23T13:08:40.690Z,22.50
2022-10-23T13:11:38.200Z,21.50
2022-10-23T13:14:13.339Z,22.00
2022-10-23T13:16:41.810Z,16.25
2022-10-23T13:19:24.025Z,24.75
2022-10-23T13:21:52.433Z,20.25
2022-10-23T13:24:22.006Z,23.25
2022-10-23T13:27:01.460Z,21.25
2022-10-23T13:29:33.278Z,23.75
2022-10-23T13:32:11.373Z,42.40
2022-10-23T13:34:41.326Z,21.00
2022-10-23T13:37:23.961Z,17.00
2022-10-23T13:40:01.262Z,22.75
2022-10-23T13:42:31.069Z,17.25
2022-10-23T13:44:59.494Z,22.50
2022-10-23T13:47:30.116Z,18.00
2022-10-23T13:50:00.160Z,21.25
2022-10-23T13:52:28.544Z,21.25
2022-10-23T13:54:57.217Z,25.75
2022-10-23T13:57:25.682Z,23.50
2022-10-23T13:59:54.150Z,19.50
2022-10-23T14:02:23.395Z,23.50
2022-10-23T14:04:52.949Z,19.00
2022-10-23T14:07:22.983Z,23.25
2022-10-23T14:09:51.161Z,27.00
2022-10-23T14:12:19.457Z,11.25
2022-10-23T14:14:52.012Z,21.00
2022-10-23T14:17:20.435Z,22.50
2022-10-23T14:19:51.014Z,22.50
2022-10-23T14:22:19.948Z,25.00
2022-10-23T14:24:50.046Z,23.00
2022-10-23T14:27:18.430Z,20.00
2022-10-23T14:29:47.749Z,26.25
2022-10-23T14:32:15.997Z,24.50
2022-10-23T14:34:45.996Z,37.20
2022-10-23T14:37:14.220Z,24.00
2022-10-23T14:39:45.171Z,22.25
2022-10-23T14:42:19.202Z,26.00
2022-10-23T14:44:49.578Z,22.00
2022-10-23T14:47:19.293Z,24.75
2022-10-23T14:49:49.523Z,26.00
2022-10-23T14:52:17.846Z,25.50
2022-10-23T14:54:46.212Z,30.80
2022-10-23T14:57:16.781Z,22.50
2022-10-23T14:59:46.453Z,25.50
2022-10-23T15:02:15.012Z,26.00
2022-10-23T15:04:43.981Z,24.00
2022-10-23T15:07:12.440Z,28.60
2022-10-23T15:09:40.910Z,22.25
2022-10-23T15:12:09.699Z,28.00
2022-10-23T15:14:38.298Z,26.00
2022-10-23T15:17:10.700Z,27.60
2022-10-23T15:19:42.043Z,24.50
2022-10-23T15:22:12.171Z,26.00
2022-10-23T15:24:40.430Z,25.25
2022-10-23T15:29:45.223Z,26.20
2022-10-23T15:32:14.935Z,21.00
2022-10-23T15:34:43.518Z,23.00
2022-10-23T15:37:12.538Z,26.20
2022-10-23T15:39:41.101Z,26.25
2022-10-23T15:42:10.133Z,26.75
2022-10-23T15:44:38.580Z,27.40
2022-10-23T15:47:07.059Z,25.60
2022-10-23T15:49:37.247Z,27.00
2022-10-23T15:52:06.067Z,23.25
2022-10-23T15:54:34.642Z,27.60
2022-10-23T15:57:03.346Z,27.60
2022-10-23T15:59:32.129Z,28.00
2022-10-23T16:02:00.910Z,28.60
2022-10-23T16:04:30.140Z,28.40
2022-10-23T16:07:00.297Z,25.00
2022-10-23T16:09:29.043Z,27.20
2022-10-23T16:11:57.975Z,26.00
2022-10-23T16:14:27.194Z,28.20
2022-10-23T16:16:55.797Z,27.40
2022-10-23T16:19:24.383Z,27.60
2022-10-23T16:21:52.958Z,27.00
2022-10-23T16:24:24.179Z,28.20
2022-10-23T16:26:55.492Z,29.60
2022-10-23T16:29:29.861Z,39.80
2022-10-23T16:31:59.996Z,30.40
2022-10-23T16:34:28.584Z,29.20
2022-10-23T16:36:57.545Z,31.00
2022-10-23T16:39:36.312Z,41.20
2022-10-23T16:42:43.791Z,29.00
2022-10-23T16:45:25.467Z,27.20
2022-10-23T16:47:54.030Z,29.80
2022-10-23T16:50:23.297Z,29.80
2022-10-23T16:52:53.370Z,29.80
2022-10-23T16:55:28.019Z,29.00
2022-10-23T16:57:57.810Z,28.60
2022-10-23T17:00:35.386Z,28.40
2022-10-23T17:03:04.220Z,31.40
2022-10-23T17:05:35.945Z,28.20
2022-10-23T17:08:04.339Z,31.00
2022-10-23T17:10:35.445Z,28.00
2022-10-23T17:13:04.401Z,29.80
2022-10-23T17:15:32.875Z,32.00
2022-10-23T17:18:01.241Z,29.20
2022-10-23T17:20:30.220Z,30.00
2022-10-23T17:22:58.579Z,12.00
2022-10-23T17:25:27.491Z,29.00
2022-10-23T17:27:58.040Z,29.20
2022-10-23T17:30:28.274Z,30.80
2022-10-23T17:32:59.470Z,27.00
2022-10-23T17:35:30.694Z,29.80
2022-10-23T17:37:59.070Z,30.25
2022-10-23T17:40:31.045Z,27.00
2022-10-23T17:43:00.866Z,15.50
2022-10-23T17:45:29.436Z,23.25
2022-10-23T17:47:58.663Z,35.80
2022-10-23T17:50:28.391Z,28.00
2022-10-23T17:52:57.289Z,25.60
2022-10-23T17:55:27.764Z,28.25
2022-10-23T17:57:56.272Z,29.00
2022-10-23T18:00:27.126Z,27.00
2022-10-23T18:02:55.520Z,23.50
2022-10-23T18:05:24.048Z,26.75
2022-10-23T18:08:17.576Z,26.75
2022-10-23T18:10:46.269Z,25.00
2022-10-23T18:13:14.992Z,18.50
2022-10-23T18:15:44.656Z,24.75
2022-10-23T18:18:12.970Z,24.50
2022-10-23T18:20:42.012Z,25.75
2022-10-23T18:23:10.256Z,27.50
2022-10-23T18:25:43.313Z,23.75
2022-10-23T18:28:11.635Z,26.50
2022-10-23T18:30:39.896Z,28.00
2022-10-23T18:33:09.455Z,24.50
2022-10-23T18:35:37.674Z,22.50
2022-10-23T18:38:05.886Z,24.60
2022-10-23T18:40:34.745Z,24.20
2022-10-23T18:43:03.102Z,21.50
2022-10-23T18:45:31.683Z,24.80
2022-10-23T18:47:59.959Z,24.60
2022-10-23T18:50:31.254Z,24.00
2022-10-23T18:52:59.788Z,21.25
2022-10-23T18:55:28.422Z,26.00
2022-10-23T18:57:56.950Z,24.00
2022-10-23T19:00:25.305Z,24.00
2022-10-23T19:02:53.742Z,17.80
2022-10-23T19:05:22.143Z,27.00
2022-10-23T19:07:51.999Z,24.20
2022-10-23T19:10:28.211Z,24.80
2022-10-23T19:12:56.612Z,27.40
2022-10-23T19:15:25.734Z,27.00
2022-10-23T19:17:54.443Z,26.00
2022-10-23T19:20:23.254Z,26.80
2022-10-23T19:22:53.862Z,23.60
2022-10-23T19:25:25.400Z,27.80
2022-10-23T19:27:55.064Z,28.80
2022-10-23T19:30:23.452Z,26.20
2022-10-23T19:32:52.131Z,24.40
2022-10-23T19:35:21.263Z,24.20
2022-10-23T19:37:49.673Z,26.00
2022-10-23T19:40:19.996Z,24.60
2022-10-23T19:42:48.201Z,24.20
2022-10-23T19:45:16.709Z,25.40
2022-10-23T19:47:46.278Z,26.00
2022-10-23T19:50:14.938Z,21.60
2022-10-23T19:52:43.107Z,18.25
2022-10-23T19:55:11.834Z,22.25
2022-10-23T19:57:41.526Z,24.50
2022-10-23T20:00:10.933Z,25.50
2022-10-23T20:02:39.291Z,21.75
2022-10-23T20:05:07.981Z,21.75
2022-10-23T20:07:37.882Z,15.00
2022-10-23T20:10:06.977Z,17.50
2022-10-23T20:12:44.444Z,17.50
2022-10-23T20:15:22.403Z,19.00
2022-10-23T20:17:50.709Z,21.50
2022-10-23T20:20:26.390Z,26.75
2022-10-23T20:22:55.585Z,24.25
2022-10-23T20:25:25.836Z,28.50
2022-10-23T20:27:54.480Z,22.50
2022-10-23T20:30:24.213Z,26.00
2022-10-23T20:32:52.563Z,25.50
2022-10-23T20:35:20.933Z,25.00
2022-10-23T20:37:49.338Z,21.25
2022-10-23T20:40:17.811Z,25.25
2022-10-23T20:42:45.978Z,22.75
2022-10-23T20:45:14.282Z,21.75
2022-10-23T20:47:44.285Z,25.00
2022-10-23T20:50:12.762Z,23.50
2022-10-23T20:52:41.227Z,26.00
2022-10-23T20:55:09.858Z,26.00
2022-10-23T20:57:38.163Z,27.00
2022-10-23T21:00:07.225Z,24.25
2022-10-23T21:02:35.559Z,26.00
2022-10-23T21:05:05.534Z,29.00
2022-10-23T21:07:33.752Z,28.40
2022-10-23T21:10:02.038Z,26.20
2022-10-23T21:12:30.570Z,23.00
2022-10-23T21:14:58.771Z,25.20
2022-10-23T21:17:27.074Z,26.00
2022-10-23T21:19:55.511Z,26.00
2022-10-23T21:22:25.383Z,26.00
2022-10-23T21:24:55.162Z,24.20
2022-10-23T21:27:23.355Z,24.20
2022-10-23T21:29:55.302Z,19.25
2022-10-23T21:32:23.558Z,16.00
2022-10-23T21:34:55.378Z,21.00
2022-10-23T21:37:30.507Z,22.75
2022-10-23T21:39:58.659Z,21.00
2022-10-23T21:42:26.828Z,17.00
2022-10-23T21:44:54.963Z,16.25
2022-10-23T21:47:23.126Z,16.25
2022-10-23T21:49:51.246Z,15.00
2022-10-23T21:52:19.971Z,12.50
2022-10-23T21:54:54.000Z,10.75
2022-10-23T21:57:22.247Z,13.25
2022-10-23T21:59:51.294Z,11.00
2022-10-23T22:02:19.596Z,10.00
2022-10-23T22:04:47.832Z,4.25
2022-10-23T22:07:19.194Z,11.25
2022-10-23T22:09:47.289Z,9.00
2022-10-23T22:12:16.949Z,10.75
2022-10-23T22:14:45.252Z,11.00
2022-10-23T22:17:13.280Z,11.00
2022-10-23T22:19:41.368Z,5.50
2022-10-23T22:22:10.060Z,11.25
2022-10-23T22:24:38.311Z,6.00
2022-10-23T22:27:06.409Z,10.25
2022-10-23T22:29:36.896Z,9.00
2022-10-23T22:32:05.797Z,7.50
2022-10-23T22:34:52.013Z,9.00
2022-10-23T22:37:21.161Z,8.00
2022-10-23T22:39:51.527Z,10.00
2022-10-23T22:42:19.647Z,10.00
2022-10-23T22:44:49.167Z,8.00
2022-10-23T22:47:17.608Z,11.50
2022-10-23T22:49:46.025Z,13.75
2022-10-23T22:52:16.299Z,10.00
2022-10-23T22:54:44.408Z,11.00
2022-10-23T22:57:12.548Z,12.00
2022-10-23T22:59:40.779Z,10.00
2022-10-23T23:02:10.409Z,10.25
2022-10-23T23:04:40.375Z,15.00
2022-10-23T23:07:08.976Z,12.75
2022-10-23T23:09:38.456Z,7.00
2022-10-23T23:12:06.625Z,13.00
2022-10-23T23:14:34.768Z,16.50
2022-10-23T23:17:02.816Z,17.00
2022-10-23T23:19:32.653Z,8.25
2022-10-23T23:22:01.252Z,12.00
2022-10-23T23:24:29.456Z,11.75
2022-10-23T23:26:57.613Z,12.50
2022-10-23T23:29:27.016Z,10.25
2022-10-23T23:31:55.235Z,11.50
2022-10-23T23:34:25.708Z,15.00
2022-10-23T23:36:55.231Z,13.25
2022-10-23T23:39:24.054Z,13.00
2022-10-23T23:41:52.139Z,10.00
2022-10-23T23:44:20.264Z,12.75
2022-10-23T23:46:48.308Z,14.50
2022-10-23T23:49:16.504Z,4.00
2022-10-23T23:51:44.551Z,7.75
2022-10-23T23:54:14.068Z,9.00
2022-10-23T23:56:42.156Z,13.00
2022-10-23T23:59:10.181Z,14.00
